sensor_id;sensor_type;location;lat;lon;timestamp;temperature;humidity
770;DHT22;368;48.698;9.116;2022-10-15T00:01:06;13.70;99.90
770;DHT22;368;48.698;9.116;2022-10-15T00:03:35;13.90;99.90
770;DHT22;368;48.698;9.116;2022-10-15T00:06:04;13.80;99.90
770;DHT22;368;48.698;9.116;2022-10-15T00:08:32;13.80;99.90
770;DHT22;368;48.698;9.116;2022-10-15T00:11:07;13.80;99.90
770;DHT22;368;48.698;9.116;2022-10-15T00:13:34;13.90;99.90
770;DHT22;368;48.698;9.116;2022-10-15T00:16:01;13.70;99.90
770;DHT22;368;48.698;9.116;2022-10-15T00:18:28;13.60;99.90
770;DHT22;368;48.698;9.116;2022-10-15T00:20:55;13.90;99.90
770;DHT22;368;48.698;9.116;2022-10-15T00:23:21;13.50;99.90
770;DHT22;368;48.698;9.116;2022-10-15T00:25:50;14.00;99.90
770;DHT22;368;48.698;9.116;2022-10-15T00:28:25;14.00;99.90
770;DHT22;368;48.698;9.116;2022-10-15T00:30:59;13.60;99.90
770;DHT22;368;48.698;9.116;2022-10-15T00:33:26;13.70;99.90
770;DHT22;368;48.698;9.116;2022-10-15T00:36:00;13.90;99.90
770;DHT22;368;48.698;9.116;2022-10-15T00:38:28;13.60;99.90
770;DHT22;368;48.698;9.116;2022-10-15T00:40:57;13.90;99.90
770;DHT22;368;48.698;9.116;2022-10-15T00:43:37;14.00;99.90
770;DHT22;368;48.698;9.116;2022-10-15T00:46:06;13.70;99.90
770;DHT22;368;48.698;9.116;2022-10-15T00:48:38;13.70;99.90
770;DHT22;368;48.698;9.116;2022-10-15T00:51:05;13.80;99.90
770;DHT22;368;48.698;9.116;2022-10-15T00:53:32;13.70;99.90
770;DHT22;368;48.698;9.116;2022-10-15T00:56:00;14.10;99.90
770;DHT22;368;48.698;9.116;2022-10-15T00:58:30;14.00;99.90
770;DHT22;368;48.698;9.116;2022-10-15T01:00:58;14.10;99.90
770;DHT22;368;48.698;9.116;2022-10-15T01:03:25;14.10;99.90
770;DHT22;368;48.698;9.116;2022-10-15T01:05:52;13.90;99.90
770;DHT22;368;48.698;9.116;2022-10-15T01:08:20;13.80;99.90
770;DHT22;368;48.698;9.116;2022-10-15T01:10:52;13.80;99.90
770;DHT22;368;48.698;9.116;2022-10-15T01:13:33;14.00;99.90
770;DHT22;368;48.698;9.116;2022-10-15T01:16:06;13.80;99.90
770;DHT22;368;48.698;9.116;2022-10-15T01:18:38;13.90;99.90
770;DHT22;368;48.698;9.116;2022-10-15T01:21:11;13.70;99.90
770;DHT22;368;48.698;9.116;2022-10-15T01:29:57;13.90;99.90
770;DHT22;368;48.698;9.116;2022-10-15T01:32:34;13.90;99.90
770;DHT22;368;48.698;9.116;2022-10-15T01:35:08;13.90;99.90
770;DHT22;368;48.698;9.116;2022-10-15T01:37:43;13.90;99.90
770;DHT22;368;48.698;9.116;2022-10-15T01:40:16;14.00;99.90
770;DHT22;368;48.698;9.116;2022-10-15T01:42:49;14.20;99.90
770;DHT22;368;48.698;9.116;2022-10-15T01:45:20;14.00;99.90
770;DHT22;368;48.698;9.116;2022-10-15T01:47:53;14.00;99.90
770;DHT22;368;48.698;9.116;2022-10-15T01:50:23;14.10;99.90
770;DHT22;368;48.698;9.116;2022-10-15T01:52:51;14.00;99.90
770;DHT22;368;48.698;9.116;2022-10-15T01:55:21;14.20;99.90
770;DHT22;368;48.698;9.116;2022-10-15T01:57:49;13.80;99.90
770;DHT22;368;48.698;9.116;2022-10-15T02:00:16;14.10;99.90
770;DHT22;368;48.698;9.116;2022-10-15T02:02:43;14.20;99.90
770;DHT22;368;48.698;9.116;2022-10-15T02:05:15;14.10;99.90
770;DHT22;368;48.698;9.116;2022-10-15T02:07:48;14.00;99.90
770;DHT22;368;48.698;9.116;2022-10-15T02:10:24;14.10;99.90
770;DHT22;368;48.698;9.116;2022-10-15T02:13:03;14.10;99.90
770;DHT22;368;48.698;9.116;2022-10-15T02:15:36;14.10;99.90
770;DHT22;368;48.698;9.116;2022-10-15T02:18:09;13.90;99.90
770;DHT22;368;48.698;9.116;2022-10-15T02:20:44;14.00;99.90
770;DHT22;368;48.698;9.116;2022-10-15T02:23:18;14.30;99.90
770;DHT22;368;48.698;9.116;2022-10-15T02:25:46;14.10;99.90
770;DHT22;368;48.698;9.116;2022-10-15T02:28:15;14.00;99.90
770;DHT22;368;48.698;9.116;2022-10-15T02:30:45;14.30;99.90
770;DHT22;368;48.698;9.116;2022-10-15T02:33:14;14.20;99.90
770;DHT22;368;48.698;9.116;2022-10-15T02:35:44;14.10;99.90
770;DHT22;368;48.698;9.116;2022-10-15T02:38:14;14.10;99.90
770;DHT22;368;48.698;9.116;2022-10-15T02:40:42;14.10;99.90
770;DHT22;368;48.698;9.116;2022-10-15T02:43:13;14.10;99.90
770;DHT22;368;48.698;9.116;2022-10-15T02:45:40;14.00;99.90
770;DHT22;368;48.698;9.116;2022-10-15T02:48:07;14.30;99.90
770;DHT22;368;48.698;9.116;2022-10-15T02:50:33;14.10;99.90
770;DHT22;368;48.698;9.116;2022-10-15T02:53:02;14.30;99.90
770;DHT22;368;48.698;9.116;2022-10-15T02:55:29;14.20;99.90
770;DHT22;368;48.698;9.116;2022-10-15T02:57:56;14.40;99.90
770;DHT22;368;48.698;9.116;2022-10-15T03:00:22;14.20;99.90
770;DHT22;368;48.698;9.116;2022-10-15T03:02:49;14.30;99.90
770;DHT22;368;48.698;9.116;2022-10-15T03:05:16;14.20;99.90
770;DHT22;368;48.698;9.116;2022-10-15T03:07:43;14.30;99.90
770;DHT22;368;48.698;9.116;2022-10-15T03:10:11;14.50;99.90
770;DHT22;368;48.698;9.116;2022-10-15T03:12:38;14.30;99.90
770;DHT22;368;48.698;9.116;2022-10-15T03:15:06;14.40;99.90
770;DHT22;368;48.698;9.116;2022-10-15T03:17:33;14.50;99.90
770;DHT22;368;48.698;9.116;2022-10-15T03:20:00;14.20;99.90
770;DHT22;368;48.698;9.116;2022-10-15T03:22:26;14.30;99.90
770;DHT22;368;48.698;9.116;2022-10-15T03:24:53;14.50;99.90
770;DHT22;368;48.698;9.116;2022-10-15T03:27:22;14.50;99.90
770;DHT22;368;48.698;9.116;2022-10-15T03:29:49;14.60;99.90
770;DHT22;368;48.698;9.116;2022-10-15T03:32:16;14.70;99.90
770;DHT22;368;48.698;9.116;2022-10-15T03:34:43;14.40;99.90
770;DHT22;368;48.698;9.116;2022-10-15T03:37:09;14.60;99.90
770;DHT22;368;48.698;9.116;2022-10-15T03:39:36;14.50;99.90
770;DHT22;368;48.698;9.116;2022-10-15T03:42:03;14.70;99.90
770;DHT22;368;48.698;9.116;2022-10-15T03:44:31;14.50;99.90
770;DHT22;368;48.698;9.116;2022-10-15T03:46:59;14.50;99.90
770;DHT22;368;48.698;9.116;2022-10-15T03:49:26;14.50;99.90
770;DHT22;368;48.698;9.116;2022-10-15T03:51:52;14.60;99.90
770;DHT22;368;48.698;9.116;2022-10-15T03:54:19;14.50;99.90
770;DHT22;368;48.698;9.116;2022-10-15T03:56:46;14.40;99.90
770;DHT22;368;48.698;9.116;2022-10-15T03:59:13;14.50;99.90
770;DHT22;368;48.698;9.116;2022-10-15T04:01:42;14.70;99.90
770;DHT22;368;48.698;9.116;2022-10-15T04:04:10;14.60;99.90
770;DHT22;368;48.698;9.116;2022-10-15T04:06:37;14.60;99.90
770;DHT22;368;48.698;9.116;2022-10-15T04:09:04;14.60;99.90
770;DHT22;368;48.698;9.116;2022-10-15T04:11:31;14.70;99.90
770;DHT22;368;48.698;9.116;2022-10-15T04:13:57;14.70;99.90
770;DHT22;368;48.698;9.116;2022-10-15T04:16:24;14.80;99.90
770;DHT22;368;48.698;9.116;2022-10-15T04:18:52;14.70;99.90
770;DHT22;368;48.698;9.116;2022-10-15T04:21:19;14.60;99.90
770;DHT22;368;48.698;9.116;2022-10-15T04:23:46;14.50;99.90
770;DHT22;368;48.698;9.116;2022-10-15T04:26:13;14.70;99.90
770;DHT22;368;48.698;9.116;2022-10-15T04:28:40;14.80;99.90
770;DHT22;368;48.698;9.116;2022-10-15T04:31:07;14.80;99.90
770;DHT22;368;48.698;9.116;2022-10-15T04:33:34;14.50;99.90
770;DHT22;368;48.698;9.116;2022-10-15T04:36:05;14.80;99.90
770;DHT22;368;48.698;9.116;2022-10-15T04:38:32;14.60;99.90
770;DHT22;368;48.698;9.116;2022-10-15T04:41:00;14.50;99.90
770;DHT22;368;48.698;9.116;2022-10-15T04:43:28;14.50;99.90
770;DHT22;368;48.698;9.116;2022-10-15T04:45:58;14.80;99.90
770;DHT22;368;48.698;9.116;2022-10-15T04:48:28;14.70;99.90
770;DHT22;368;48.698;9.116;2022-10-15T04:51:03;14.80;99.90
770;DHT22;368;48.698;9.116;2022-10-15T04:53:30;14.70;99.90
770;DHT22;368;48.698;9.116;2022-10-15T04:56:00;14.60;99.90
770;DHT22;368;48.698;9.116;2022-10-15T04:58:28;14.70;99.90
770;DHT22;368;48.698;9.116;2022-10-15T05:00:58;14.60;99.90
770;DHT22;368;48.698;9.116;2022-10-15T05:03:25;14.60;99.90
770;DHT22;368;48.698;9.116;2022-10-15T05:05:52;14.70;99.90
770;DHT22;368;48.698;9.116;2022-10-15T05:08:20;14.60;99.90
770;DHT22;368;48.698;9.116;2022-10-15T05:10:46;14.60;99.90
770;DHT22;368;48.698;9.116;2022-10-15T05:13:13;14.50;99.90
770;DHT22;368;48.698;9.116;2022-10-15T05:15:40;14.50;99.90
770;DHT22;368;48.698;9.116;2022-10-15T05:18:07;14.30;99.90
770;DHT22;368;48.698;9.116;2022-10-15T05:20:34;14.60;99.90
770;DHT22;368;48.698;9.116;2022-10-15T05:23:01;14.40;99.90
770;DHT22;368;48.698;9.116;2022-10-15T05:25:32;14.50;99.90
770;DHT22;368;48.698;9.116;2022-10-15T05:27:58;14.70;99.90
770;DHT22;368;48.698;9.116;2022-10-15T05:30:25;14.40;99.90
770;DHT22;368;48.698;9.116;2022-10-15T05:32:52;14.40;99.90
770;DHT22;368;48.698;9.116;2022-10-15T05:35:22;14.40;99.90
770;DHT22;368;48.698;9.116;2022-10-15T05:37:50;14.40;99.90
770;DHT22;368;48.698;9.116;2022-10-15T05:40:17;14.20;99.90
770;DHT22;368;48.698;9.116;2022-10-15T05:42:50;14.20;99.90
770;DHT22;368;48.698;9.116;2022-10-15T05:45:17;14.20;99.90
770;DHT22;368;48.698;9.116;2022-10-15T05:47:44;14.20;99.90
770;DHT22;368;48.698;9.116;2022-10-15T05:50:10;14.40;99.90
770;DHT22;368;48.698;9.116;2022-10-15T05:52:37;14.30;99.90
770;DHT22;368;48.698;9.116;2022-10-15T05:55:05;14.40;99.90
770;DHT22;368;48.698;9.116;2022-10-15T05:57:31;14.40;99.90
770;DHT22;368;48.698;9.116;2022-10-15T06:00:00;14.40;99.90
770;DHT22;368;48.698;9.116;2022-10-15T06:02:26;14.50;99.90
770;DHT22;368;48.698;9.116;2022-10-15T06:04:53;14.30;99.90
770;DHT22;368;48.698;9.116;2022-10-15T06:07:20;14.10;99.90
770;DHT22;368;48.698;9.116;2022-10-15T06:09:47;14.30;99.90
770;DHT22;368;48.698;9.116;2022-10-15T06:12:14;14.40;99.90
770;DHT22;368;48.698;9.116;2022-10-15T06:14:41;14.20;99.90
770;DHT22;368;48.698;9.116;2022-10-15T06:17:09;14.40;99.90
770;DHT22;368;48.698;9.116;2022-10-15T06:19:36;14.10;99.90
770;DHT22;368;48.698;9.116;2022-10-15T06:22:02;14.30;99.90
770;DHT22;368;48.698;9.116;2022-10-15T06:24:29;14.20;99.90
770;DHT22;368;48.698;9.116;2022-10-15T06:26:57;14.30;99.90
770;DHT22;368;48.698;9.116;2022-10-15T06:29:24;14.10;99.90
770;DHT22;368;48.698;9.116;2022-10-15T06:31:50;14.10;99.90
770;DHT22;368;48.698;9.116;2022-10-15T06:34:18;14.20;99.90
770;DHT22;368;48.698;9.116;2022-10-15T06:36:45;14.30;99.90
770;DHT22;368;48.698;9.116;2022-10-15T06:39:12;14.20;99.90
770;DHT22;368;48.698;9.116;2022-10-15T06:41:39;14.20;99.90
770;DHT22;368;48.698;9.116;2022-10-15T06:44:06;14.40;99.90
770;DHT22;368;48.698;9.116;2022-10-15T06:46:32;14.30;99.90
770;DHT22;368;48.698;9.116;2022-10-15T06:48:59;14.50;99.90
770;DHT22;368;48.698;9.116;2022-10-15T06:51:27;14.40;99.90
770;DHT22;368;48.698;9.116;2022-10-15T06:53:54;14.30;99.90
770;DHT22;368;48.698;9.116;2022-10-15T06:56:21;14.30;99.90
770;DHT22;368;48.698;9.116;2022-10-15T06:58:48;14.50;99.90
770;DHT22;368;48.698;9.116;2022-10-15T07:01:14;14.30;99.90
770;DHT22;368;48.698;9.116;2022-10-15T07:03:41;14.30;99.90
770;DHT22;368;48.698;9.116;2022-10-15T07:06:08;14.40;99.90
770;DHT22;368;48.698;9.116;2022-10-15T07:08:37;14.50;99.90
770;DHT22;368;48.698;9.116;2022-10-15T07:11:04;14.50;99.90
770;DHT22;368;48.698;9.116;2022-10-15T07:13:33;14.40;99.90
770;DHT22;368;48.698;9.116;2022-10-15T07:16:03;14.60;99.90
770;DHT22;368;48.698;9.116;2022-10-15T07:18:30;14.30;99.90
770;DHT22;368;48.698;9.116;2022-10-15T07:20:57;14.60;99.90
770;DHT22;368;48.698;9.116;2022-10-15T07:23:24;14.60;99.90
770;DHT22;368;48.698;9.116;2022-10-15T07:25:52;14.70;99.90
770;DHT22;368;48.698;9.116;2022-10-15T07:28:19;14.60;99.90
770;DHT22;368;48.698;9.116;2022-10-15T07:30:46;14.60;99.90
770;DHT22;368;48.698;9.116;2022-10-15T07:33:13;14.50;99.90
770;DHT22;368;48.698;9.116;2022-10-15T07:35:40;14.70;99.90
770;DHT22;368;48.698;9.116;2022-10-15T07:38:07;14.60;99.90
770;DHT22;368;48.698;9.116;2022-10-15T07:40:34;14.50;99.90
770;DHT22;368;48.698;9.116;2022-10-15T07:43:02;14.60;99.90
770;DHT22;368;48.698;9.116;2022-10-15T07:45:29;14.50;99.90
770;DHT22;368;48.698;9.116;2022-10-15T07:47:56;14.70;99.90
770;DHT22;368;48.698;9.116;2022-10-15T07:50:22;14.80;99.90
770;DHT22;368;48.698;9.116;2022-10-15T07:52:49;14.90;99.90
770;DHT22;368;48.698;9.116;2022-10-15T07:55:16;15.00;99.90
770;DHT22;368;48.698;9.116;2022-10-15T07:57:43;14.80;99.90
770;DHT22;368;48.698;9.116;2022-10-15T08:00:12;15.00;99.90
770;DHT22;368;48.698;9.116;2022-10-15T08:02:39;15.10;99.90
770;DHT22;368;48.698;9.116;2022-10-15T08:05:06;15.10;99.90
770;DHT22;368;48.698;9.116;2022-10-15T08:07:33;15.50;99.90
770;DHT22;368;48.698;9.116;2022-10-15T08:10:00;15.10;99.90
770;DHT22;368;48.698;9.116;2022-10-15T08:12:27;15.50;99.90
770;DHT22;368;48.698;9.116;2022-10-15T08:14:53;15.40;99.90
770;DHT22;368;48.698;9.116;2022-10-15T08:17:22;15.30;99.90
770;DHT22;368;48.698;9.116;2022-10-15T08:19:48;15.50;99.90
770;DHT22;368;48.698;9.116;2022-10-15T08:22:15;15.30;99.90
770;DHT22;368;48.698;9.116;2022-10-15T08:24:42;15.30;99.90
770;DHT22;368;48.698;9.116;2022-10-15T08:27:09;15.30;99.90
770;DHT22;368;48.698;9.116;2022-10-15T08:29:35;15.20;99.90
770;DHT22;368;48.698;9.116;2022-10-15T08:35:26;15.50;99.90
770;DHT22;368;48.698;9.116;2022-10-15T08:37:53;15.70;99.90
770;DHT22;368;48.698;9.116;2022-10-15T08:40:20;15.50;99.90
770;DHT22;368;48.698;9.116;2022-10-15T08:42:47;15.80;99.90
770;DHT22;368;48.698;9.116;2022-10-15T08:45:17;15.80;99.90
770;DHT22;368;48.698;9.116;2022-10-15T08:47:47;15.90;99.90
770;DHT22;368;48.698;9.116;2022-10-15T08:50:21;15.90;99.90
770;DHT22;368;48.698;9.116;2022-10-15T08:52:53;15.80;99.90
770;DHT22;368;48.698;9.116;2022-10-15T08:55:21;15.80;99.90
770;DHT22;368;48.698;9.116;2022-10-15T08:57:53;16.10;99.90
770;DHT22;368;48.698;9.116;2022-10-15T09:00:23;15.90;99.90
770;DHT22;368;48.698;9.116;2022-10-15T09:02:57;16.40;99.90
770;DHT22;368;48.698;9.116;2022-10-15T09:05:31;16.20;99.90
770;DHT22;368;48.698;9.116;2022-10-15T09:08:07;16.30;99.90
770;DHT22;368;48.698;9.116;2022-10-15T09:10:40;16.20;99.90
770;DHT22;368;48.698;9.116;2022-10-15T09:13:11;16.40;99.90
770;DHT22;368;48.698;9.116;2022-10-15T09:15:46;16.30;99.90
770;DHT22;368;48.698;9.116;2022-10-15T09:18:19;16.50;99.90
770;DHT22;368;48.698;9.116;2022-10-15T09:20:50;16.70;99.90
770;DHT22;368;48.698;9.116;2022-10-15T09:23:22;16.60;99.90
770;DHT22;368;48.698;9.116;2022-10-15T09:25:59;16.80;99.90
770;DHT22;368;48.698;9.116;2022-10-15T09:28:34;16.80;99.90
770;DHT22;368;48.698;9.116;2022-10-15T09:31:06;16.40;99.90
770;DHT22;368;48.698;9.116;2022-10-15T09:33:37;16.50;99.90
770;DHT22;368;48.698;9.116;2022-10-15T09:36:24;16.20;99.90
770;DHT22;368;48.698;9.116;2022-10-15T09:39:03;16.40;99.90
770;DHT22;368;48.698;9.116;2022-10-15T09:41:42;16.30;99.90
770;DHT22;368;48.698;9.116;2022-10-15T09:44:16;16.90;99.90
770;DHT22;368;48.698;9.116;2022-10-15T09:46:44;17.20;99.90
770;DHT22;368;48.698;9.116;2022-10-15T09:49:13;17.60;99.90
770;DHT22;368;48.698;9.116;2022-10-15T09:51:47;17.50;99.90
770;DHT22;368;48.698;9.116;2022-10-15T09:54:23;17.10;99.90
770;DHT22;368;48.698;9.116;2022-10-15T09:56:54;17.30;99.90
770;DHT22;368;48.698;9.116;2022-10-15T09:59:23;17.80;99.90
770;DHT22;368;48.698;9.116;2022-10-15T10:01:57;18.30;99.90
770;DHT22;368;48.698;9.116;2022-10-15T10:04:28;19.60;99.90
770;DHT22;368;48.698;9.116;2022-10-15T10:06:57;19.80;99.90
770;DHT22;368;48.698;9.116;2022-10-15T10:09:28;20.50;99.90
770;DHT22;368;48.698;9.116;2022-10-15T10:11:59;21.40;99.90
770;DHT22;368;48.698;9.116;2022-10-15T10:14:29;20.50;99.90
770;DHT22;368;48.698;9.116;2022-10-15T10:17:14;20.30;99.90
770;DHT22;368;48.698;9.116;2022-10-15T10:19:42;20.10;99.90
770;DHT22;368;48.698;9.116;2022-10-15T10:22:14;19.10;99.90
770;DHT22;368;48.698;9.116;2022-10-15T10:24:42;18.30;99.90
770;DHT22;368;48.698;9.116;2022-10-15T10:27:21;18.60;99.90
770;DHT22;368;48.698;9.116;2022-10-15T10:29:52;19.70;99.90
770;DHT22;368;48.698;9.116;2022-10-15T10:32:21;21.60;99.90
770;DHT22;368;48.698;9.116;2022-10-15T10:34:49;22.90;99.90
770;DHT22;368;48.698;9.116;2022-10-15T10:37:16;23.40;99.90
770;DHT22;368;48.698;9.116;2022-10-15T10:39:44;22.90;99.90
770;DHT22;368;48.698;9.116;2022-10-15T10:42:30;22.10;99.90
770;DHT22;368;48.698;9.116;2022-10-15T10:45:18;21.70;99.90
770;DHT22;368;48.698;9.116;2022-10-15T10:47:46;21.30;99.90
770;DHT22;368;48.698;9.116;2022-10-15T10:50:26;22.90;99.90
770;DHT22;368;48.698;9.116;2022-10-15T10:52:54;24.00;99.90
770;DHT22;368;48.698;9.116;2022-10-15T10:55:28;24.20;99.00
770;DHT22;368;48.698;9.116;2022-10-15T10:57:59;22.00;99.90
770;DHT22;368;48.698;9.116;2022-10-15T11:00:33;20.50;99.90
770;DHT22;368;48.698;9.116;2022-10-15T11:03:01;19.50;99.90
770;DHT22;368;48.698;9.116;2022-10-15T11:05:30;19.10;99.90
770;DHT22;368;48.698;9.116;2022-10-15T11:08:04;19.00;99.90
770;DHT22;368;48.698;9.116;2022-10-15T11:10:39;18.70;99.90
770;DHT22;368;48.698;9.116;2022-10-15T11:13:22;18.70;99.90
770;DHT22;368;48.698;9.116;2022-10-15T11:15:55;19.00;99.90
770;DHT22;368;48.698;9.116;2022-10-15T11:18:52;19.10;99.90
770;DHT22;368;48.698;9.116;2022-10-15T11:21:27;19.20;99.90
770;DHT22;368;48.698;9.116;2022-10-15T11:24:09;19.30;99.90
770;DHT22;368;48.698;9.116;2022-10-15T11:26:50;19.30;99.90
770;DHT22;368;48.698;9.116;2022-10-15T11:29:26;19.30;99.90
770;DHT22;368;48.698;9.116;2022-10-15T11:32:04;19.20;99.90
770;DHT22;368;48.698;9.116;2022-10-15T11:34:41;18.90;99.90
770;DHT22;368;48.698;9.116;2022-10-15T11:37:24;18.80;99.90
770;DHT22;368;48.698;9.116;2022-10-15T11:40:05;19.10;99.90
770;DHT22;368;48.698;9.116;2022-10-15T11:42:43;19.00;99.90
770;DHT22;368;48.698;9.116;2022-10-15T11:48:20;18.60;99.90
770;DHT22;368;48.698;9.116;2022-10-15T11:50:50;19.20;99.90
770;DHT22;368;48.698;9.116;2022-10-15T11:53:40;19.10;99.90
770;DHT22;368;48.698;9.116;2022-10-15T11:56:13;19.70;99.90
770;DHT22;368;48.698;9.116;2022-10-15T11:58:46;20.40;99.90
770;DHT22;368;48.698;9.116;2022-10-15T12:01:19;21.40;99.90
770;DHT22;368;48.698;9.116;2022-10-15T12:03:53;20.20;99.90
770;DHT22;368;48.698;9.116;2022-10-15T12:06:22;20.20;99.90
770;DHT22;368;48.698;9.116;2022-10-15T12:08:51;20.10;99.90
770;DHT22;368;48.698;9.116;2022-10-15T12:11:27;19.70;99.90
770;DHT22;368;48.698;9.116;2022-10-15T12:14:01;20.00;99.90
770;DHT22;368;48.698;9.116;2022-10-15T12:16:35;19.30;99.90
770;DHT22;368;48.698;9.116;2022-10-15T12:19:11;19.00;99.90
770;DHT22;368;48.698;9.116;2022-10-15T12:21:42;18.50;99.90
770;DHT22;368;48.698;9.116;2022-10-15T12:27:15;18.30;99.90
770;DHT22;368;48.698;9.116;2022-10-15T12:29:49;17.90;99.90
770;DHT22;368;48.698;9.116;2022-10-15T12:32:21;17.60;99.90
770;DHT22;368;48.698;9.116;2022-10-15T12:34:53;17.40;99.90
770;DHT22;368;48.698;9.116;2022-10-15T12:37:22;17.10;99.90
770;DHT22;368;48.698;9.116;2022-10-15T12:39:54;16.90;99.90
770;DHT22;368;48.698;9.116;2022-10-15T12:42:25;16.80;99.90
770;DHT22;368;48.698;9.116;2022-10-15T12:44:54;16.70;99.90
770;DHT22;368;48.698;9.116;2022-10-15T12:47:55;16.40;99.90
770;DHT22;368;48.698;9.116;2022-10-15T12:50:41;16.50;99.90
770;DHT22;368;48.698;9.116;2022-10-15T12:53:28;16.70;99.90
770;DHT22;368;48.698;9.116;2022-10-15T12:56:12;16.70;99.90
770;DHT22;368;48.698;9.116;2022-10-15T12:58:46;16.80;99.90
770;DHT22;368;48.698;9.116;2022-10-15T13:01:49;16.40;99.90
770;DHT22;368;48.698;9.116;2022-10-15T13:04:17;16.80;99.90
770;DHT22;368;48.698;9.116;2022-10-15T13:06:45;16.70;99.90
770;DHT22;368;48.698;9.116;2022-10-15T13:09:23;16.60;99.90
770;DHT22;368;48.698;9.116;2022-10-15T13:11:54;16.40;99.90
770;DHT22;368;48.698;9.116;2022-10-15T13:14:28;16.80;99.90
770;DHT22;368;48.698;9.116;2022-10-15T13:16:58;17.00;99.90
770;DHT22;368;48.698;9.116;2022-10-15T13:19:28;16.90;99.90
770;DHT22;368;48.698;9.116;2022-10-15T13:21:57;16.90;99.90
770;DHT22;368;48.698;9.116;2022-10-15T13:24:26;17.00;99.90
770;DHT22;368;48.698;9.116;2022-10-15T13:26:55;16.80;99.90
770;DHT22;368;48.698;9.116;2022-10-15T13:29:24;16.70;99.90
770;DHT22;368;48.698;9.116;2022-10-15T13:31:54;16.60;99.90
770;DHT22;368;48.698;9.116;2022-10-15T13:34:26;16.70;99.90
770;DHT22;368;48.698;9.116;2022-10-15T13:36:55;16.60;99.90
770;DHT22;368;48.698;9.116;2022-10-15T13:39:29;16.60;99.90
770;DHT22;368;48.698;9.116;2022-10-15T13:42:09;16.60;99.90
770;DHT22;368;48.698;9.116;2022-10-15T13:44:39;16.60;99.90
770;DHT22;368;48.698;9.116;2022-10-15T13:47:24;16.40;99.90
770;DHT22;368;48.698;9.116;2022-10-15T13:50:10;16.00;99.90
770;DHT22;368;48.698;9.116;2022-10-15T13:52:38;16.10;99.90
770;DHT22;368;48.698;9.116;2022-10-15T13:55:15;15.90;99.90
770;DHT22;368;48.698;9.116;2022-10-15T13:57:43;15.90;99.90
770;DHT22;368;48.698;9.116;2022-10-15T14:00:19;16.20;99.90
770;DHT22;368;48.698;9.116;2022-10-15T14:03:06;15.90;99.90
770;DHT22;368;48.698;9.116;2022-10-15T14:05:34;16.20;99.90
770;DHT22;368;48.698;9.116;2022-10-15T14:08:01;16.10;99.90
770;DHT22;368;48.698;9.116;2022-10-15T14:10:28;16.10;99.90
770;DHT22;368;48.698;9.116;2022-10-15T14:12:55;16.00;99.90
770;DHT22;368;48.698;9.116;2022-10-15T14:15:42;16.30;99.90
770;DHT22;368;48.698;9.116;2022-10-15T14:18:09;16.40;99.90
770;DHT22;368;48.698;9.116;2022-10-15T14:20:42;16.40;99.90
770;DHT22;368;48.698;9.116;2022-10-15T14:23:15;16.10;99.90
770;DHT22;368;48.698;9.116;2022-10-15T14:25:42;16.50;99.90
770;DHT22;368;48.698;9.116;2022-10-15T14:28:17;16.40;99.90
770;DHT22;368;48.698;9.116;2022-10-15T14:30:45;16.40;99.90
770;DHT22;368;48.698;9.116;2022-10-15T14:33:42;16.20;99.90
770;DHT22;368;48.698;9.116;2022-10-15T14:36:23;16.50;99.90
770;DHT22;368;48.698;9.116;2022-10-15T14:38:53;16.40;99.90
770;DHT22;368;48.698;9.116;2022-10-15T14:41:26;16.60;99.90
770;DHT22;368;48.698;9.116;2022-10-15T14:44:05;16.70;99.90
770;DHT22;368;48.698;9.116;2022-10-15T14:46:37;16.70;99.90
770;DHT22;368;48.698;9.116;2022-10-15T14:49:15;16.70;99.90
770;DHT22;368;48.698;9.116;2022-10-15T14:51:44;16.70;99.90
770;DHT22;368;48.698;9.116;2022-10-15T14:54:19;16.80;99.90
770;DHT22;368;48.698;9.116;2022-10-15T14:56:48;16.80;99.90
770;DHT22;368;48.698;9.116;2022-10-15T14:59:17;17.10;99.90
770;DHT22;368;48.698;9.116;2022-10-15T15:01:53;17.00;99.90
770;DHT22;368;48.698;9.116;2022-10-15T15:04:35;16.90;99.90
770;DHT22;368;48.698;9.116;2022-10-15T15:07:09;17.00;99.90
770;DHT22;368;48.698;9.116;2022-10-15T15:09:37;16.90;99.90
770;DHT22;368;48.698;9.116;2022-10-15T15:12:07;17.10;99.90
770;DHT22;368;48.698;9.116;2022-10-15T15:14:35;17.30;99.90
770;DHT22;368;48.698;9.116;2022-10-15T15:17:01;17.30;99.90
770;DHT22;368;48.698;9.116;2022-10-15T15:19:28;17.50;99.90
770;DHT22;368;48.698;9.116;2022-10-15T15:21:55;17.70;99.90
770;DHT22;368;48.698;9.116;2022-10-15T15:24:23;17.90;99.90
770;DHT22;368;48.698;9.116;2022-10-15T15:26:50;18.50;99.90
770;DHT22;368;48.698;9.116;2022-10-15T15:29:16;18.70;99.90
770;DHT22;368;48.698;9.116;2022-10-15T15:31:43;18.20;99.90
770;DHT22;368;48.698;9.116;2022-10-15T15:34:10;17.70;99.90
770;DHT22;368;48.698;9.116;2022-10-15T15:36:37;17.40;99.90
770;DHT22;368;48.698;9.116;2022-10-15T15:39:04;17.20;99.90
770;DHT22;368;48.698;9.116;2022-10-15T15:41:32;17.20;99.90
770;DHT22;368;48.698;9.116;2022-10-15T15:43:59;17.00;99.90
770;DHT22;368;48.698;9.116;2022-10-15T15:46:27;16.70;99.90
770;DHT22;368;48.698;9.116;2022-10-15T15:48:54;16.80;99.90
770;DHT22;368;48.698;9.116;2022-10-15T15:51:25;16.70;99.90
770;DHT22;368;48.698;9.116;2022-10-15T15:53:53;16.50;99.90
770;DHT22;368;48.698;9.116;2022-10-15T15:56:20;16.50;99.90
770;DHT22;368;48.698;9.116;2022-10-15T15:58:48;17.20;99.90
770;DHT22;368;48.698;9.116;2022-10-15T16:01:15;16.70;99.90
770;DHT22;368;48.698;9.116;2022-10-15T16:03:45;16.50;99.90
770;DHT22;368;48.698;9.116;2022-10-15T16:06:12;16.50;99.90
770;DHT22;368;48.698;9.116;2022-10-15T16:08:39;16.30;99.90
770;DHT22;368;48.698;9.116;2022-10-15T16:11:06;16.40;99.90
770;DHT22;368;48.698;9.116;2022-10-15T16:13:33;16.30;99.90
770;DHT22;368;48.698;9.116;2022-10-15T16:16:02;16.00;99.90
770;DHT22;368;48.698;9.116;2022-10-15T16:18:28;16.10;99.90
770;DHT22;368;48.698;9.116;2022-10-15T16:20:55;16.00;99.90
770;DHT22;368;48.698;9.116;2022-10-15T16:23:22;15.80;99.90
770;DHT22;368;48.698;9.116;2022-10-15T16:25:49;15.70;99.90
770;DHT22;368;48.698;9.116;2022-10-15T16:28:16;15.80;99.90
770;DHT22;368;48.698;9.116;2022-10-15T16:30:43;15.40;99.90
770;DHT22;368;48.698;9.116;2022-10-15T16:33:11;15.70;99.90
770;DHT22;368;48.698;9.116;2022-10-15T16:35:37;16.00;99.90
770;DHT22;368;48.698;9.116;2022-10-15T16:38:04;15.90;99.90
770;DHT22;368;48.698;9.116;2022-10-15T16:40:31;15.70;99.90
770;DHT22;368;48.698;9.116;2022-10-15T16:42:59;15.70;99.90
770;DHT22;368;48.698;9.116;2022-10-15T16:45:26;15.70;99.90
770;DHT22;368;48.698;9.116;2022-10-15T16:47:53;15.60;99.90
770;DHT22;368;48.698;9.116;2022-10-15T16:50:21;15.70;99.90
770;DHT22;368;48.698;9.116;2022-10-15T16:52:48;15.80;99.90
770;DHT22;368;48.698;9.116;2022-10-15T16:55:14;15.70;99.90
770;DHT22;368;48.698;9.116;2022-10-15T16:57:42;15.50;99.90
770;DHT22;368;48.698;9.116;2022-10-15T17:00:10;16.00;99.90
770;DHT22;368;48.698;9.116;2022-10-15T17:02:36;15.70;99.90
770;DHT22;368;48.698;9.116;2022-10-15T17:05:04;15.60;99.90
770;DHT22;368;48.698;9.116;2022-10-15T17:07:32;15.60;99.90
770;DHT22;368;48.698;9.116;2022-10-15T17:09:59;15.40;99.90